sensor_id;sensor_type;location;lat;lon;timestamp;P1;durP1;ratioP1;P2;durP2;ratioP2
36189;SDS011;22232;50.914;13.858;2024-02-23T00:01:55;1.85;;;1.60;;
36189;SDS011;22232;50.914;13.858;2024-02-23T00:04:22;2.28;;;1.80;;
36189;SDS011;22232;50.914;13.858;2024-02-23T00:06:50;1.90;;;1.80;;
36189;SDS011;22232;50.914;13.858;2024-02-23T00:09:18;2.45;;;2.20;;
36189;SDS011;22232;50.914;13.858;2024-02-23T00:11:45;2.38;;;2.20;;
36189;SDS011;22232;50.914;13.858;2024-02-23T00:14:15;2.17;;;1.98;;
36189;SDS011;22232;50.914;13.858;2024-02-23T00:16:45;2.38;;;2.17;;
36189;SDS011;22232;50.914;13.858;2024-02-23T00:19:13;2.38;;;2.20;;
36189;SDS011;22232;50.914;13.858;2024-02-23T00:21:41;2.33;;;2.13;;
36189;SDS011;22232;50.914;13.858;2024-02-23T00:24:09;2.55;;;2.35;;
36189;SDS011;22232;50.914;13.858;2024-02-23T00:26:37;2.20;;;2.00;;
36189;SDS011;22232;50.914;13.858;2024-02-23T00:29:04;2.25;;;2.15;;
36189;SDS011;22232;50.914;13.858;2024-02-23T00:31:32;2.80;;;2.50;;
36189;SDS011;22232;50.914;13.858;2024-02-23T00:33:59;2.10;;;1.90;;
36189;SDS011;22232;50.914;13.858;2024-02-23T00:36:27;2.00;;;1.80;;
36189;SDS011;22232;50.914;13.858;2024-02-23T00:38:55;2.45;;;1.92;;
36189;SDS011;22232;50.914;13.858;2024-02-23T00:41:22;2.35;;;1.80;;
36189;SDS011;22232;50.914;13.858;2024-02-23T00:43:50;2.00;;;1.80;;
36189;SDS011;22232;50.914;13.858;2024-02-23T00:46:18;1.90;;;1.80;;
36189;SDS011;22232;50.914;13.858;2024-02-23T00:48:45;2.13;;;1.60;;
36189;SDS011;22232;50.914;13.858;2024-02-23T00:51:13;1.50;;;1.40;;
36189;SDS011;22232;50.914;13.858;2024-02-23T00:53:40;1.98;;;1.80;;
36189;SDS011;22232;50.914;13.858;2024-02-23T00:56:08;2.30;;;1.30;;
36189;SDS011;22232;50.914;13.858;2024-02-23T00:58:35;1.30;;;1.08;;
36189;SDS011;22232;50.914;13.858;2024-02-23T01:01:03;0.90;;;0.90;;
36189;SDS011;22232;50.914;13.858;2024-02-23T01:03:30;1.00;;;1.00;;
36189;SDS011;22232;50.914;13.858;2024-02-23T01:05:58;0.90;;;0.90;;
36189;SDS011;22232;50.914;13.858;2024-02-23T01:08:26;1.00;;;1.00;;
36189;SDS011;22232;50.914;13.858;2024-02-23T01:10:54;1.35;;;0.80;;
36189;SDS011;22232;50.914;13.858;2024-02-23T01:13:21;0.70;;;0.70;;
36189;SDS011;22232;50.914;13.858;2024-02-23T01:15:49;0.77;;;0.77;;
36189;SDS011;22232;50.914;13.858;2024-02-23T01:18:16;2.95;;;0.90;;
36189;SDS011;22232;50.914;13.858;2024-02-23T01:20:44;2.00;;;0.90;;
36189;SDS011;22232;50.914;13.858;2024-02-23T01:23:12;0.70;;;0.70;;
36189;SDS011;22232;50.914;13.858;2024-02-23T01:25:39;0.80;;;0.80;;
36189;SDS011;22232;50.914;13.858;2024-02-23T01:28:07;1.52;;;0.88;;
36189;SDS011;22232;50.914;13.858;2024-02-23T01:30:35;0.70;;;0.70;;
36189;SDS011;22232;50.914;13.858;2024-02-23T01:33:02;1.10;;;1.00;;
36189;SDS011;22232;50.914;13.858;2024-02-23T01:35:30;0.85;;;0.70;;
36189;SDS011;22232;50.914;13.858;2024-02-23T01:37:58;1.42;;;0.73;;
36189;SDS011;22232;50.914;13.858;2024-02-23T01:40:25;1.85;;;0.50;;
36189;SDS011;22232;50.914;13.858;2024-02-23T01:43:03;0.50;;;0.50;;
36189;SDS011;22232;50.914;13.858;2024-02-23T01:45:31;0.70;;;0.70;;
36189;SDS011;22232;50.914;13.858;2024-02-23T01:47:59;0.63;;;0.63;;
36189;SDS011;22232;50.914;13.858;2024-02-23T01:50:28;0.95;;;0.80;;
36189;SDS011;22232;50.914;13.858;2024-02-23T01:52:58;0.77;;;0.77;;
36189;SDS011;22232;50.914;13.858;2024-02-23T01:55:28;4.38;;;1.00;;
36189;SDS011;22232;50.914;13.858;2024-02-23T01:57:58;1.40;;;1.00;;
36189;SDS011;22232;50.914;13.858;2024-02-23T02:00:29;1.35;;;1.15;;
36189;SDS011;22232;50.914;13.858;2024-02-23T02:02:58;1.00;;;0.90;;
36189;SDS011;22232;50.914;13.858;2024-02-23T02:05:26;0.95;;;0.90;;
36189;SDS011;22232;50.914;13.858;2024-02-23T02:07:53;0.90;;;0.90;;
36189;SDS011;22232;50.914;13.858;2024-02-23T02:10:26;1.33;;;1.23;;
36189;SDS011;22232;50.914;13.858;2024-02-23T02:12:54;1.20;;;1.10;;
36189;SDS011;22232;50.914;13.858;2024-02-23T02:15:21;0.80;;;0.60;;
36189;SDS011;22232;50.914;13.858;2024-02-23T02:17:49;1.05;;;0.57;;
36189;SDS011;22232;50.914;13.858;2024-02-23T02:20:17;0.50;;;0.50;;
36189;SDS011;22232;50.914;13.858;2024-02-23T02:22:45;1.35;;;0.50;;
36189;SDS011;22232;50.914;13.858;2024-02-23T02:25:13;0.95;;;0.43;;
36189;SDS011;22232;50.914;13.858;2024-02-23T02:27:42;0.80;;;0.40;;
36189;SDS011;22232;50.914;13.858;2024-02-23T02:30:12;0.55;;;0.40;;
36189;SDS011;22232;50.914;13.858;2024-02-23T02:32:40;0.70;;;0.70;;
36189;SDS011;22232;50.914;13.858;2024-02-23T02:35:10;1.00;;;0.60;;
36189;SDS011;22232;50.914;13.858;2024-02-23T02:37:39;0.30;;;0.30;;
36189;SDS011;22232;50.914;13.858;2024-02-23T02:40:07;0.80;;;0.47;;
36189;SDS011;22232;50.914;13.858;2024-02-23T02:42:35;0.75;;;0.50;;
36189;SDS011;22232;50.914;13.858;2024-02-23T02:45:02;0.43;;;0.43;;
36189;SDS011;22232;50.914;13.858;2024-02-23T02:47:30;0.60;;;0.30;;
36189;SDS011;22232;50.914;13.858;2024-02-23T02:49:58;0.50;;;0.40;;
36189;SDS011;22232;50.914;13.858;2024-02-23T02:52:26;0.43;;;0.35;;
36189;SDS011;22232;50.914;13.858;2024-02-23T02:54:54;0.88;;;0.30;;
36189;SDS011;22232;50.914;13.858;2024-02-23T02:57:21;0.35;;;0.22;;
36189;SDS011;22232;50.914;13.858;2024-02-23T02:59:49;0.20;;;0.20;;
36189;SDS011;22232;50.914;13.858;2024-02-23T03:02:17;0.60;;;0.50;;
36189;SDS011;22232;50.914;13.858;2024-02-23T03:04:48;0.75;;;0.50;;
36189;SDS011;22232;50.914;13.858;2024-02-23T03:07:16;1.42;;;0.30;;
36189;SDS011;22232;50.914;13.858;2024-02-23T03:09:44;0.35;;;0.35;;
36189;SDS011;22232;50.914;13.858;2024-02-23T03:12:12;0.40;;;0.40;;
36189;SDS011;22232;50.914;13.858;2024-02-23T03:14:40;1.83;;;0.40;;
36189;SDS011;22232;50.914;13.858;2024-02-23T03:17:08;1.10;;;0.50;;
36189;SDS011;22232;50.914;13.858;2024-02-23T03:19:37;3.17;;;0.55;;
36189;SDS011;22232;50.914;13.858;2024-02-23T03:22:05;0.43;;;0.43;;
36189;SDS011;22232;50.914;13.858;2024-02-23T03:24:33;0.50;;;0.50;;
36189;SDS011;22232;50.914;13.858;2024-02-23T03:27:00;4.28;;;0.40;;
36189;SDS011;22232;50.914;13.858;2024-02-23T03:29:28;0.52;;;0.35;;
36189;SDS011;22232;50.914;13.858;2024-02-23T03:31:57;1.17;;;0.40;;
36189;SDS011;22232;50.914;13.858;2024-02-23T03:34:24;1.30;;;0.50;;
36189;SDS011;22232;50.914;13.858;2024-02-23T03:36:52;1.27;;;0.47;;
36189;SDS011;22232;50.914;13.858;2024-02-23T03:39:20;0.52;;;0.40;;
36189;SDS011;22232;50.914;13.858;2024-02-23T03:41:47;2.15;;;0.50;;
36189;SDS011;22232;50.914;13.858;2024-02-23T03:44:15;0.70;;;0.30;;
36189;SDS011;22232;50.914;13.858;2024-02-23T03:46:42;0.93;;;0.30;;
36189;SDS011;22232;50.914;13.858;2024-02-23T03:49:10;0.80;;;0.32;;
36189;SDS011;22232;50.914;13.858;2024-02-23T03:51:39;0.47;;;0.47;;
36189;SDS011;22232;50.914;13.858;2024-02-23T03:54:07;0.57;;;0.25;;
36189;SDS011;22232;50.914;13.858;2024-02-23T03:56:41;0.30;;;0.25;;
36189;SDS011;22232;50.914;13.858;2024-02-23T03:59:09;0.73;;;0.50;;
36189;SDS011;22232;50.914;13.858;2024-02-23T04:01:37;0.82;;;0.40;;
36189;SDS011;22232;50.914;13.858;2024-02-23T04:04:06;0.75;;;0.40;;
36189;SDS011;22232;50.914;13.858;2024-02-23T04:06:34;2.03;;;0.30;;
36189;SDS011;22232;50.914;13.858;2024-02-23T04:09:02;2.17;;;0.40;;
36189;SDS011;22232;50.914;13.858;2024-02-23T04:11:33;1.08;;;0.70;;
36189;SDS011;22232;50.914;13.858;2024-02-23T04:14:01;0.77;;;0.22;;
36189;SDS011;22232;50.914;13.858;2024-02-23T04:16:29;0.85;;;0.32;;
36189;SDS011;22232;50.914;13.858;2024-02-23T04:18:56;0.40;;;0.30;;
36189;SDS011;22232;50.914;13.858;2024-02-23T04:21:24;0.35;;;0.30;;
36189;SDS011;22232;50.914;13.858;2024-02-23T04:23:52;0.70;;;0.35;;
36189;SDS011;22232;50.914;13.858;2024-02-23T04:26:19;2.53;;;0.30;;
36189;SDS011;22232;50.914;13.858;2024-02-23T04:28:47;0.68;;;0.35;;
36189;SDS011;22232;50.914;13.858;2024-02-23T04:31:15;0.32;;;0.32;;
36189;SDS011;22232;50.914;13.858;2024-02-23T04:33:42;0.90;;;0.30;;
36189;SDS011;22232;50.914;13.858;2024-02-23T04:36:10;0.47;;;0.40;;
36189;SDS011;22232;50.914;13.858;2024-02-23T04:38:37;0.32;;;0.32;;
36189;SDS011;22232;50.914;13.858;2024-02-23T04:41:05;0.32;;;0.30;;
36189;SDS011;22232;50.914;13.858;2024-02-23T04:43:33;0.35;;;0.30;;
36189;SDS011;22232;50.914;13.858;2024-02-23T04:46:00;1.50;;;0.43;;
36189;SDS011;22232;50.914;13.858;2024-02-23T04:48:28;2.30;;;0.40;;
36189;SDS011;22232;50.914;13.858;2024-02-23T04:50:58;0.35;;;0.35;;
36189;SDS011;22232;50.914;13.858;2024-02-23T04:53:25;0.50;;;0.50;;
36189;SDS011;22232;50.914;13.858;2024-02-23T04:55:54;2.10;;;1.00;;
36189;SDS011;22232;50.914;13.858;2024-02-23T04:58:21;2.17;;;1.00;;
36189;SDS011;22232;50.914;13.858;2024-02-23T05:00:49;4.88;;;0.77;;
36189;SDS011;22232;50.914;13.858;2024-02-23T05:03:16;2.17;;;0.88;;
36189;SDS011;22232;50.914;13.858;2024-02-23T05:05:44;4.35;;;1.92;;
36189;SDS011;22232;50.914;13.858;2024-02-23T05:08:11;3.30;;;1.60;;
36189;SDS011;22232;50.914;13.858;2024-02-23T05:10:39;2.28;;;0.65;;
36189;SDS011;22232;50.914;13.858;2024-02-23T05:13:06;5.32;;;2.42;;
36189;SDS011;22232;50.914;13.858;2024-02-23T05:15:34;1.00;;;0.52;;
36189;SDS011;22232;50.914;13.858;2024-02-23T05:18:01;2.25;;;1.10;;
36189;SDS011;22232;50.914;13.858;2024-02-23T05:20:29;0.50;;;0.47;;
36189;SDS011;22232;50.914;13.858;2024-02-23T05:22:57;4.13;;;1.20;;
36189;SDS011;22232;50.914;13.858;2024-02-23T05:25:24;5.30;;;2.60;;
36189;SDS011;22232;50.914;13.858;2024-02-23T05:27:55;4.78;;;1.60;;
36189;SDS011;22232;50.914;13.858;2024-02-23T05:30:23;3.20;;;0.55;;
36189;SDS011;22232;50.914;13.858;2024-02-23T05:32:50;0.90;;;0.68;;
36189;SDS011;22232;50.914;13.858;2024-02-23T05:35:18;1.42;;;0.60;;
36189;SDS011;22232;50.914;13.858;2024-02-23T05:37:45;2.05;;;0.57;;
36189;SDS011;22232;50.914;13.858;2024-02-23T05:40:13;1.05;;;0.47;;
36189;SDS011;22232;50.914;13.858;2024-02-23T05:42:41;1.95;;;1.75;;
36189;SDS011;22232;50.914;13.858;2024-02-23T05:45:08;12.20;;;5.82;;
36189;SDS011;22232;50.914;13.858;2024-02-23T05:47:37;2.33;;;1.10;;
36189;SDS011;22232;50.914;13.858;2024-02-23T05:50:13;1.00;;;0.47;;
36189;SDS011;22232;50.914;13.858;2024-02-23T05:52:40;1.60;;;0.60;;
36189;SDS011;22232;50.914;13.858;2024-02-23T05:55:08;0.73;;;0.38;;
36189;SDS011;22232;50.914;13.858;2024-02-23T05:57:36;5.32;;;3.40;;
36189;SDS011;22232;50.914;13.858;2024-02-23T06:00:04;7.15;;;4.15;;
36189;SDS011;22232;50.914;13.858;2024-02-23T06:02:37;2.67;;;1.40;;
36189;SDS011;22232;50.914;13.858;2024-02-23T06:05:05;2.47;;;0.98;;
36189;SDS011;22232;50.914;13.858;2024-02-23T06:07:35;1.52;;;0.47;;
36189;SDS011;22232;50.914;13.858;2024-02-23T06:10:04;4.47;;;0.60;;
36189;SDS011;22232;50.914;13.858;2024-02-23T06:12:32;1.30;;;0.40;;
36189;SDS011;22232;50.914;13.858;2024-02-23T06:15:00;0.60;;;0.50;;
36189;SDS011;22232;50.914;13.858;2024-02-23T06:17:27;1.38;;;0.40;;
36189;SDS011;22232;50.914;13.858;2024-02-23T06:19:55;0.95;;;0.50;;
36189;SDS011;22232;50.914;13.858;2024-02-23T06:22:26;1.75;;;0.35;;
36189;SDS011;22232;50.914;13.858;2024-02-23T06:24:53;0.85;;;0.60;;
36189;SDS011;22232;50.914;13.858;2024-02-23T06:27:21;1.45;;;0.40;;
36189;SDS011;22232;50.914;13.858;2024-02-23T06:29:49;2.08;;;0.40;;
36189;SDS011;22232;50.914;13.858;2024-02-23T06:32:17;1.50;;;0.47;;
36189;SDS011;22232;50.914;13.858;2024-02-23T06:34:45;1.48;;;0.40;;
36189;SDS011;22232;50.914;13.858;2024-02-23T06:37:13;0.95;;;0.50;;
36189;SDS011;22232;50.914;13.858;2024-02-23T06:39:40;0.52;;;0.50;;
36189;SDS011;22232;50.914;13.858;2024-02-23T06:42:08;1.10;;;0.47;;
36189;SDS011;22232;50.914;13.858;2024-02-23T06:44:35;1.52;;;0.65;;
36189;SDS011;22232;50.914;13.858;2024-02-23T06:47:03;2.28;;;0.60;;
36189;SDS011;22232;50.914;13.858;2024-02-23T06:49:31;0.50;;;0.50;;
36189;SDS011;22232;50.914;13.858;2024-02-23T06:51:58;3.17;;;0.85;;
36189;SDS011;22232;50.914;13.858;2024-02-23T06:54:26;0.45;;;0.40;;
36189;SDS011;22232;50.914;13.858;2024-02-23T07:00:14;2.00;;;0.40;;
36189;SDS011;22232;50.914;13.858;2024-02-23T07:02:42;2.50;;;0.40;;
36189;SDS011;22232;50.914;13.858;2024-02-23T07:05:09;2.47;;;0.70;;
36189;SDS011;22232;50.914;13.858;2024-02-23T07:07:37;4.28;;;2.28;;
36189;SDS011;22232;50.914;13.858;2024-02-23T07:10:07;3.78;;;1.20;;
36189;SDS011;22232;50.914;13.858;2024-02-23T07:12:35;4.57;;;1.38;;
36189;SDS011;22232;50.914;13.858;2024-02-23T07:15:03;2.97;;;1.10;;
36189;SDS011;22232;50.914;13.858;2024-02-23T07:17:31;4.53;;;1.70;;
36189;SDS011;22232;50.914;13.858;2024-02-23T07:19:59;2.08;;;1.40;;
36189;SDS011;22232;50.914;13.858;2024-02-23T07:22:33;3.95;;;0.80;;
36189;SDS011;22232;50.914;13.858;2024-02-23T07:25:01;1.92;;;0.50;;
36189;SDS011;22232;50.914;13.858;2024-02-23T07:27:30;2.22;;;0.60;;
36189;SDS011;22232;50.914;13.858;2024-02-23T07:29:58;0.93;;;0.40;;
36189;SDS011;22232;50.914;13.858;2024-02-23T07:32:26;0.38;;;0.30;;
36189;SDS011;22232;50.914;13.858;2024-02-23T07:34:54;1.77;;;0.43;;
36189;SDS011;22232;50.914;13.858;2024-02-23T07:37:22;1.50;;;0.50;;
36189;SDS011;22232;50.914;13.858;2024-02-23T07:39:49;0.85;;;0.50;;
36189;SDS011;22232;50.914;13.858;2024-02-23T07:42:17;1.30;;;0.50;;
36189;SDS011;22232;50.914;13.858;2024-02-23T07:44:45;0.65;;;0.65;;
36189;SDS011;22232;50.914;13.858;2024-02-23T07:47:13;0.63;;;0.63;;
36189;SDS011;22232;50.914;13.858;2024-02-23T07:49:42;1.10;;;0.40;;
36189;SDS011;22232;50.914;13.858;2024-02-23T07:52:10;1.17;;;0.50;;
36189;SDS011;22232;50.914;13.858;2024-02-23T07:54:37;2.13;;;0.70;;
36189;SDS011;22232;50.914;13.858;2024-02-23T07:57:05;4.57;;;0.35;;
36189;SDS011;22232;50.914;13.858;2024-02-23T07:59:32;1.88;;;0.65;;
36189;SDS011;22232;50.914;13.858;2024-02-23T08:02:00;1.45;;;0.45;;
36189;SDS011;22232;50.914;13.858;2024-02-23T08:04:28;0.60;;;0.30;;
36189;SDS011;22232;50.914;13.858;2024-02-23T08:06:55;1.70;;;0.50;;
36189;SDS011;22232;50.914;13.858;2024-02-23T08:09:23;1.48;;;0.40;;
36189;SDS011;22232;50.914;13.858;2024-02-23T08:11:51;5.78;;;0.50;;
36189;SDS011;22232;50.914;13.858;2024-02-23T08:14:18;0.60;;;0.38;;
36189;SDS011;22232;50.914;13.858;2024-02-23T08:16:46;1.95;;;0.50;;
36189;SDS011;22232;50.914;13.858;2024-02-23T08:19:13;0.52;;;0.30;;
36189;SDS011;22232;50.914;13.858;2024-02-23T08:21:41;0.43;;;0.32;;
36189;SDS011;22232;50.914;13.858;2024-02-23T08:24:09;1.30;;;0.30;;
36189;SDS011;22232;50.914;13.858;2024-02-23T08:26:36;3.33;;;0.60;;
36189;SDS011;22232;50.914;13.858;2024-02-23T08:29:05;2.17;;;0.60;;
36189;SDS011;22232;50.914;13.858;2024-02-23T08:31:33;1.45;;;0.70;;
36189;SDS011;22232;50.914;13.858;2024-02-23T08:34:00;1.77;;;0.75;;
36189;SDS011;22232;50.914;13.858;2024-02-23T08:36:28;0.65;;;0.40;;
36189;SDS011;22232;50.914;13.858;2024-02-23T08:38:56;2.42;;;0.50;;
36189;SDS011;22232;50.914;13.858;2024-02-23T08:41:23;2.85;;;0.52;;
36189;SDS011;22232;50.914;13.858;2024-02-23T08:43:51;1.40;;;0.35;;
36189;SDS011;22232;50.914;13.858;2024-02-23T08:46:18;0.73;;;0.40;;
36189;SDS011;22232;50.914;13.858;2024-02-23T08:48:46;0.60;;;0.30;;
36189;SDS011;22232;50.914;13.858;2024-02-23T08:51:14;2.45;;;0.40;;
36189;SDS011;22232;50.914;13.858;2024-02-23T08:53:42;1.02;;;0.35;;
36189;SDS011;22232;50.914;13.858;2024-02-23T08:56:11;0.80;;;0.45;;
36189;SDS011;22232;50.914;13.858;2024-02-23T08:58:39;2.90;;;0.60;;
36189;SDS011;22232;50.914;13.858;2024-02-23T09:01:07;2.08;;;0.43;;
36189;SDS011;22232;50.914;13.858;2024-02-23T09:03:36;3.00;;;0.50;;
36189;SDS011;22232;50.914;13.858;2024-02-23T09:06:04;1.95;;;0.70;;
36189;SDS011;22232;50.914;13.858;2024-02-23T09:08:32;1.20;;;0.63;;
36189;SDS011;22232;50.914;13.858;2024-02-23T09:11:00;2.17;;;0.60;;
36189;SDS011;22232;50.914;13.858;2024-02-23T09:13:27;1.83;;;0.50;;
36189;SDS011;22232;50.914;13.858;2024-02-23T09:15:57;1.27;;;0.45;;
36189;SDS011;22232;50.914;13.858;2024-02-23T09:18:24;1.67;;;0.50;;
36189;SDS011;22232;50.914;13.858;2024-02-23T09:20:52;2.20;;;0.55;;
36189;SDS011;22232;50.914;13.858;2024-02-23T09:23:19;2.13;;;0.60;;
36189;SDS011;22232;50.914;13.858;2024-02-23T09:25:47;1.38;;;0.40;;
36189;SDS011;22232;50.914;13.858;2024-02-23T09:28:14;2.38;;;0.40;;
36189;SDS011;22232;50.914;13.858;2024-02-23T09:30:42;0.90;;;0.45;;
36189;SDS011;22232;50.914;13.858;2024-02-23T09:33:09;2.13;;;0.60;;
36189;SDS011;22232;50.914;13.858;2024-02-23T09:35:37;1.67;;;0.47;;
36189;SDS011;22232;50.914;13.858;2024-02-23T09:38:05;0.35;;;0.35;;
36189;SDS011;22232;50.914;13.858;2024-02-23T09:40:32;3.03;;;0.38;;
36189;SDS011;22232;50.914;13.858;2024-02-23T09:43:00;2.15;;;0.65;;
36189;SDS011;22232;50.914;13.858;2024-02-23T09:45:27;1.42;;;0.50;;
36189;SDS011;22232;50.914;13.858;2024-02-23T09:47:56;3.22;;;0.82;;
36189;SDS011;22232;50.914;13.858;2024-02-23T09:50:25;1.83;;;0.50;;
36189;SDS011;22232;50.914;13.858;2024-02-23T09:52:56;1.75;;;0.70;;
36189;SDS011;22232;50.914;13.858;2024-02-23T09:55:26;1.83;;;0.45;;
36189;SDS011;22232;50.914;13.858;2024-02-23T09:57:55;1.48;;;0.50;;
36189;SDS011;22232;50.914;13.858;2024-02-23T10:00:25;1.00;;;0.50;;
36189;SDS011;22232;50.914;13.858;2024-02-23T10:02:54;0.95;;;0.63;;
36189;SDS011;22232;50.914;13.858;2024-02-23T10:05:29;0.70;;;0.40;;
36189;SDS011;22232;50.914;13.858;2024-02-23T10:08:04;1.73;;;0.47;;
36189;SDS011;22232;50.914;13.858;2024-02-23T10:10:32;0.82;;;0.40;;
36189;SDS011;22232;50.914;13.858;2024-02-23T10:13:01;1.55;;;0.55;;
36189;SDS011;22232;50.914;13.858;2024-02-23T10:15:31;0.68;;;0.50;;
36189;SDS011;22232;50.914;13.858;2024-02-23T10:17:58;1.05;;;0.30;;
36189;SDS011;22232;50.914;13.858;2024-02-23T10:20:26;1.63;;;0.32;;
36189;SDS011;22232;50.914;13.858;2024-02-23T10:22:54;3.17;;;0.50;;
36189;SDS011;22232;50.914;13.858;2024-02-23T10:25:22;2.60;;;0.70;;
36189;SDS011;22232;50.914;13.858;2024-02-23T10:27:50;0.63;;;0.32;;
36189;SDS011;22232;50.914;13.858;2024-02-23T10:30:17;0.95;;;0.47;;
36189;SDS011;22232;50.914;13.858;2024-02-23T10:32:45;1.33;;;0.47;;
36189;SDS011;22232;50.914;13.858;2024-02-23T10:35:14;2.28;;;0.40;;
36189;SDS011;22232;50.914;13.858;2024-02-23T10:37:44;0.98;;;0.40;;
36189;SDS011;22232;50.914;13.858;2024-02-23T10:40:16;1.02;;;0.35;;
36189;SDS011;22232;50.914;13.858;2024-02-23T10:42:45;1.85;;;0.50;;
36189;SDS011;22232;50.914;13.858;2024-02-23T10:45:18;2.55;;;0.30;;
36189;SDS011;22232;50.914;13.858;2024-02-23T10:47:47;1.50;;;0.52;;
36189;SDS011;22232;50.914;13.858;2024-02-23T10:50:15;1.80;;;0.77;;
36189;SDS011;22232;50.914;13.858;2024-02-23T10:52:47;1.92;;;0.47;;
36189;SDS011;22232;50.914;13.858;2024-02-23T10:55:14;1.10;;;0.32;;
36189;SDS011;22232;50.914;13.858;2024-02-23T10:57:42;0.80;;;0.30;;
36189;SDS011;22232;50.914;13.858;2024-02-23T11:00:10;1.35;;;0.40;;
36189;SDS011;22232;50.914;13.858;2024-02-23T11:02:40;0.30;;;0.30;;
36189;SDS011;22232;50.914;13.858;2024-02-23T11:05:13;1.67;;;0.30;;
36189;SDS011;22232;50.914;13.858;2024-02-23T11:07:45;0.52;;;0.35;;
36189;SDS011;22232;50.914;13.858;2024-02-23T11:10:16;1.00;;;0.57;;
36189;SDS011;22232;50.914;13.858;2024-02-23T11:12:44;1.10;;;0.50;;
36189;SDS011;22232;50.914;13.858;2024-02-23T11:15:27;2.35;;;0.45;;
36189;SDS011;22232;50.914;13.858;2024-02-23T11:17:56;0.57;;;0.38;;
36189;SDS011;22232;50.914;13.858;2024-02-23T11:20:24;1.88;;;0.40;;
36189;SDS011;22232;50.914;13.858;2024-02-23T11:23:02;0.93;;;0.35;;
36189;SDS011;22232;50.914;13.858;2024-02-23T11:25:40;0.85;;;0.50;;
36189;SDS011;22232;50.914;13.858;2024-02-23T11:28:08;2.78;;;0.40;;
36189;SDS011;22232;50.914;13.858;2024-02-23T11:30:35;1.60;;;0.55;;
36189;SDS011;22232;50.914;13.858;2024-02-23T11:33:07;1.60;;;0.30;;
36189;SDS011;22232;50.914;13.858;2024-02-23T11:35:35;1.10;;;0.30;;
36189;SDS011;22232;50.914;13.858;2024-02-23T11:38:13;1.63;;;0.43;;
36189;SDS011;22232;50.914;13.858;2024-02-23T11:40:41;2.35;;;0.60;;
36189;SDS011;22232;50.914;13.858;2024-02-23T11:43:09;1.58;;;0.60;;
36189;SDS011;22232;50.914;13.858;2024-02-23T11:45:37;0.73;;;0.40;;
36189;SDS011;22232;50.914;13.858;2024-02-23T11:48:05;1.20;;;0.30;;
36189;SDS011;22232;50.914;13.858;2024-02-23T11:50:33;1.73;;;0.43;;
36189;SDS011;22232;50.914;13.858;2024-02-23T11:53:01;1.27;;;0.38;;
36189;SDS011;22232;50.914;13.858;2024-02-23T11:55:28;1.08;;;0.50;;
36189;SDS011;22232;50.914;13.858;2024-02-23T11:57:56;1.88;;;0.40;;
36189;SDS011;22232;50.914;13.858;2024-02-23T12:00:34;1.02;;;0.50;;
36189;SDS011;22232;50.914;13.858;2024-02-23T12:03:02;1.35;;;0.43;;
36189;SDS011;22232;50.914;13.858;2024-02-23T12:05:31;0.43;;;0.40;;
36189;SDS011;22232;50.914;13.858;2024-02-23T12:07:58;1.05;;;0.75;;
36189;SDS011;22232;50.914;13.858;2024-02-23T12:10:26;1.38;;;0.60;;
36189;SDS011;22232;50.914;13.858;2024-02-23T12:12:54;2.20;;;0.73;;
36189;SDS011;22232;50.914;13.858;2024-02-23T12:15:23;2.58;;;1.02;;
36189;SDS011;22232;50.914;13.858;2024-02-23T12:17:50;4.30;;;0.93;;
36189;SDS011;22232;50.914;13.858;2024-02-23T12:20:18;2.53;;;0.70;;
36189;SDS011;22232;50.914;13.858;2024-02-23T12:22:48;1.60;;;0.75;;
36189;SDS011;22232;50.914;13.858;2024-02-23T12:25:15;2.95;;;0.85;;
36189;SDS011;22232;50.914;13.858;2024-02-23T12:27:44;1.23;;;0.80;;
36189;SDS011;22232;50.914;13.858;2024-02-23T12:30:15;2.35;;;0.77;;
36189;SDS011;22232;50.914;13.858;2024-02-23T12:32:43;2.50;;;0.80;;
36189;SDS011;22232;50.914;13.858;2024-02-23T12:35:14;4.72;;;0.90;;
36189;SDS011;22232;50.914;13.858;2024-02-23T12:37:42;2.25;;;0.80;;
36189;SDS011;22232;50.914;13.858;2024-02-23T12:40:11;2.67;;;1.13;;
36189;SDS011;22232;50.914;13.858;2024-02-23T12:42:40;2.63;;;1.02;;
36189;SDS011;22232;50.914;13.858;2024-02-23T12:45:08;2.35;;;1.00;;
36189;SDS011;22232;50.914;13.858;2024-02-23T12:47:35;3.70;;;0.80;;
36189;SDS011;22232;50.914;13.858;2024-02-23T12:50:03;3.63;;;0.93;;
36189;SDS011;22232;50.914;13.858;2024-02-23T12:52:33;2.25;;;0.70;;
36189;SDS011;22232;50.914;13.858;2024-02-23T12:55:01;1.52;;;0.90;;
36189;SDS011;22232;50.914;13.858;2024-02-23T12:57:28;1.73;;;0.80;;
36189;SDS011;22232;50.914;13.858;2024-02-23T12:59:55;1.95;;;0.80;;
36189;SDS011;22232;50.914;13.858;2024-02-23T13:02:23;3.30;;;0.75;;
36189;SDS011;22232;50.914;13.858;2024-02-23T13:04:50;1.83;;;0.70;;
36189;SDS011;22232;50.914;13.858;2024-02-23T13:07:18;4.22;;;0.75;;
36189;SDS011;22232;50.914;13.858;2024-02-23T13:09:47;1.83;;;0.63;;
36189;SDS011;22232;50.914;13.858;2024-02-23T13:12:14;6.68;;;0.80;;
36189;SDS011;22232;50.914;13.858;2024-02-23T13:14:42;2.75;;;0.80;;
36189;SDS011;22232;50.914;13.858;2024-02-23T13:17:10;2.03;;;0.68;;
36189;SDS011;22232;50.914;13.858;2024-02-23T13:19:37;2.42;;;0.80;;
36189;SDS011;22232;50.914;13.858;2024-02-23T13:22:05;3.05;;;0.60;;
36189;SDS011;22232;50.914;13.858;2024-02-23T13:24:32;2.35;;;0.70;;
36189;SDS011;22232;50.914;13.858;2024-02-23T13:27:00;1.92;;;0.65;;
36189;SDS011;22232;50.914;13.858;2024-02-23T13:29:28;2.15;;;0.90;;
36189;SDS011;22232;50.914;13.858;2024-02-23T13:31:55;3.58;;;0.90;;
36189;SDS011;22232;50.914;13.858;2024-02-23T13:34:23;1.45;;;0.70;;
36189;SDS011;22232;50.914;13.858;2024-02-23T13:36:50;1.80;;;0.77;;
36189;SDS011;22232;50.914;13.858;2024-02-23T13:39:19;1.45;;;0.50;;
36189;SDS011;22232;50.914;13.858;2024-02-23T13:41:47;3.20;;;0.85;;
36189;SDS011;22232;50.914;13.858;2024-02-23T13:44:15;1.05;;;0.60;;
36189;SDS011;22232;50.914;13.858;2024-02-23T13:46:43;1.60;;;0.82;;
36189;SDS011;22232;50.914;13.858;2024-02-23T13:49:10;4.30;;;0.63;;
36189;SDS011;22232;50.914;13.858;2024-02-23T13:51:40;2.17;;;0.70;;
36189;SDS011;22232;50.914;13.858;2024-02-23T13:54:07;1.15;;;0.52;;
36189;SDS011;22232;50.914;13.858;2024-02-23T13:56:35;1.65;;;0.50;;
36189;SDS011;22232;50.914;13.858;2024-02-23T13:59:03;3.55;;;0.57;;
36189;SDS011;22232;50.914;13.858;2024-02-23T14:01:31;1.20;;;0.52;;
36189;SDS011;22232;50.914;13.858;2024-02-23T14:03:58;3.03;;;0.70;;
36189;SDS011;22232;50.914;13.858;2024-02-23T14:06:26;2.03;;;0.70;;
36189;SDS011;22232;50.914;13.858;2024-02-23T14:08:54;2.25;;;0.80;;
36189;SDS011;22232;50.914;13.858;2024-02-23T14:11:21;1.08;;;0.60;;
36189;SDS011;22232;50.914;13.858;2024-02-23T14:13:49;1.45;;;0.68;;
36189;SDS011;22232;50.914;13.858;2024-02-23T14:16:18;4.93;;;0.80;;
36189;SDS011;22232;50.914;13.858;2024-02-23T14:18:45;3.58;;;0.98;;
36189;SDS011;22232;50.914;13.858;2024-02-23T14:21:13;2.67;;;0.93;;
36189;SDS011;22232;50.914;13.858;2024-02-23T14:23:42;1.67;;;0.90;;
36189;SDS011;22232;50.914;13.858;2024-02-23T14:26:09;4.70;;;1.30;;
36189;SDS011;22232;50.914;13.858;2024-02-23T14:28:38;2.75;;;1.02;;
36189;SDS011;22232;50.914;13.858;2024-02-23T14:31:06;2.03;;;0.68;;
36189;SDS011;22232;50.914;13.858;2024-02-23T14:33:33;3.05;;;0.80;;
36189;SDS011;22232;50.914;13.858;2024-02-23T14:36:01;4.28;;;1.17;;
36189;SDS011;22232;50.914;13.858;2024-02-23T14:38:28;4.22;;;1.00;;
36189;SDS011;22232;50.914;13.858;2024-02-23T14:40:56;1.85;;;0.88;;
36189;SDS011;22232;50.914;13.858;2024-02-23T14:43:24;5.55;;;1.15;;